Time;durP1;ratioP1;P1;durP2;ratioP2;P2;SDS_P1;SDS_P2;PMS_P1;PMS_P2;Temp;Humidity;BMP_temperature;BMP_pressure;BME280_temperature;BME280_humidity;BME280_pressure;Samples;Min_cycle;Max_cycle;Signal;HPM_P1;HPM_P2
2022/07/30 00:02:09;;;;;;;10.80;2.20;;;20.10;50.50;;;;;;5287554;28;20216;-47
2022/07/30 00:04:40;;;;;;;4.73;2.03;;;20.10;50.70;;;;;;5281671;27;20181;-48
2022/07/30 00:07:11;;;;;;;1.90;1.60;;;20.00;50.80;;;;;;5287126;28;20185;-49
2022/07/30 00:09:41;;;;;;;2.03;1.93;;;20.00;50.90;;;;;;5272201;28;20212;-47
2022/07/30 00:12:12;;;;;;;5.23;2.10;;;19.90;51.00;;;;;;5272240;28;20298;-47
2022/07/30 00:14:42;;;;;;;2.00;1.80;;;19.90;51.20;;;;;;5277197;28;20193;-47
2022/07/30 00:17:13;;;;;;;2.00;1.80;;;19.90;51.30;;;;;;5276884;28;20196;-47
2022/07/30 00:19:44;;;;;;;3.77;1.87;;;19.80;51.40;;;;;;5280749;28;20201;-46
2022/07/30 00:22:14;;;;;;;3.13;1.60;;;19.80;51.60;;;;;;5255200;28;20235;-47
2022/07/30 00:24:45;;;;;;;1.70;1.63;;;19.80;51.70;;;;;;5279464;28;20276;-48
2022/07/30 00:27:15;;;;;;;4.53;2.00;;;19.80;51.80;;;;;;5276578;28;20189;-48
2022/07/30 00:29:46;;;;;;;1.60;1.50;;;19.80;51.90;;;;;;5248436;28;20533;-48
2022/07/30 00:32:17;;;;;;;3.07;1.73;;;19.70;51.90;;;;;;5284560;28;20637;-47
2022/07/30 00:34:47;;;;;;;2.00;1.90;;;19.70;52.00;;;;;;5270069;28;20178;-48
2022/07/30 00:37:18;;;;;;;5.27;2.07;;;19.70;52.20;;;;;;5286655;28;20177;-50
2022/07/30 00:39:48;;;;;;;2.50;1.67;;;19.60;52.20;;;;;;5286539;28;20200;-47
2022/07/30 00:42:24;;;;;;;2.30;2.00;;;19.60;52.40;;;;;;5278169;28;20185;-47
2022/07/30 00:44:55;;;;;;;2.03;1.83;;;19.50;52.50;;;;;;5276621;28;20181;-48
2022/07/30 00:47:25;;;;;;;5.90;2.00;;;19.50;52.70;;;;;;5273212;28;20440;-46
2022/07/30 00:49:56;;;;;;;4.20;1.50;;;19.50;52.70;;;;;;5280196;28;20220;-47
2022/07/30 00:52:27;;;;;;;2.90;1.67;;;19.50;52.90;;;;;;5271347;28;20213;-47
2022/07/30 00:54:58;;;;;;;5.00;1.80;;;19.40;52.90;;;;;;5277671;28;20174;-47
2022/07/30 00:57:29;;;;;;;2.67;1.80;;;19.50;52.90;;;;;;5284074;28;20186;-47
2022/07/30 00:59:59;;;;;;;2.07;2.00;;;19.40;52.90;;;;;;5285371;28;20473;-49
2022/07/30 01:02:30;;;;;;;4.10;2.10;;;19.40;53.00;;;;;;5284330;27;20187;-48
2022/07/30 01:05:01;;;;;;;4.97;2.07;;;19.40;53.10;;;;;;5285320;28;20189;-48
2022/07/30 01:07:31;;;;;;;1.50;1.40;;;19.30;53.20;;;;;;5270268;28;20182;-47
2022/07/30 01:10:04;;;;;;;5.13;2.53;;;19.30;53.40;;;;;;5273183;28;20284;-48
2022/07/30 01:12:35;;;;;;;3.10;2.20;;;19.30;53.50;;;;;;5276919;28;20232;-47
2022/07/30 01:15:08;;;;;;;15.33;2.10;;;19.30;53.60;;;;;;5278949;28;20463;-49
2022/07/30 01:17:39;;;;;;;4.57;1.70;;;19.30;53.60;;;;;;5282511;27;20438;-48
2022/07/30 01:20:17;;;;;;;2.87;1.90;;;19.30;53.70;;;;;;5277829;27;20511;-47
2022/07/30 01:23:01;;;;;;;2.13;2.00;;;19.20;53.70;;;;;;5288106;28;20944;-47
2022/07/30 01:25:50;;;;;;;2.30;2.10;;;19.20;53.80;;;;;;5281303;27;20435;-47
2022/07/30 01:28:40;;;;;;;4.43;1.90;;;19.20;54.00;;;;;;5272759;28;20475;-47
2022/07/30 01:31:13;;;;;;;4.00;2.10;;;19.20;54.10;;;;;;5285583;28;20446;-47
2022/07/30 01:33:46;;;;;;;7.00;2.03;;;19.20;54.10;;;;;;5286518;27;20844;-46
2022/07/30 01:36:20;;;;;;;1.70;1.60;;;19.10;54.10;;;;;;5261949;28;20443;-47
2022/07/30 01:38:52;;;;;;;1.80;1.70;;;19.10;54.30;;;;;;5277010;28;20514;-48
2022/07/30 01:41:24;;;;;;;3.43;2.37;;;19.10;54.40;;;;;;5270709;28;20523;-47
2022/07/30 01:43:55;;;;;;;6.97;1.97;;;19.00;54.40;;;;;;5282281;28;20446;-47
2022/07/30 01:46:27;;;;;;;2.20;2.10;;;19.00;54.50;;;;;;5275845;27;20440;-48
2022/07/30 01:49:00;;;;;;;2.33;2.23;;;19.00;54.70;;;;;;5287175;27;20549;-48
2022/07/30 01:51:33;;;;;;;2.80;1.60;;;18.90;54.80;;;;;;5262897;28;20495;-46
2022/07/30 01:54:08;;;;;;;2.43;2.17;;;18.90;54.90;;;;;;5281604;28;20946;-47
2022/07/30 01:56:41;;;;;;;2.17;1.97;;;18.90;55.00;;;;;;5283562;27;20488;-47
2022/07/30 01:59:15;;;;;;;4.03;1.90;;;18.80;55.00;;;;;;5269519;28;20507;-47
2022/07/30 02:01:46;;;;;;;2.03;1.70;;;18.80;55.20;;;;;;5288252;28;20435;-47
2022/07/30 02:04:16;;;;;;;2.40;2.00;;;18.80;55.90;;;;;;5278758;28;20844;-48
2022/07/30 02:07:14;;;;;;;2.23;2.13;;;18.70;55.40;;;;;;5292498;28;20424;-48
2022/07/30 02:09:52;;;;;;;3.07;2.03;;;18.70;55.50;;;;;;5273570;28;20208;-47
2022/07/30 02:12:27;;;;;;;2.83;2.10;;;18.70;55.60;;;;;;5277101;27;20470;-46
2022/07/30 02:15:16;;;;;;;6.73;2.53;;;18.60;55.80;;;;;;5272432;28;20459;-47
2022/07/30 02:18:06;;;;;;;8.43;2.50;;;18.60;55.80;;;;;;5272401;28;20447;-47
2022/07/30 02:20:41;;;;;;;3.67;2.17;;;18.60;56.10;;;;;;5284665;28;20489;-47
2022/07/30 02:23:15;;;;;;;9.50;2.20;;;18.60;56.30;;;;;;5284823;28;20799;-46
2022/07/30 02:25:50;;;;;;;3.83;2.10;;;18.50;56.30;;;;;;5275541;28;20504;-46
2022/07/30 02:28:22;;;;;;;2.93;2.20;;;18.50;56.50;;;;;;5280336;28;20442;-47
2022/07/30 02:30:58;;;;;;;5.10;2.23;;;18.50;56.60;;;;;;5285129;28;20457;-48
2022/07/30 02:33:35;;;;;;;2.80;2.47;;;18.50;56.80;;;;;;5277889;28;20458;-46
2022/07/30 02:36:07;;;;;;;7.00;1.93;;;18.50;56.80;;;;;;5287719;28;20442;-47
2022/07/30 02:38:40;;;;;;;4.90;1.90;;;18.50;56.90;;;;;;5272744;27;20547;-47
2022/07/30 02:41:11;;;;;;;2.10;2.00;;;18.40;57.00;;;;;;5260665;28;20485;-47
2022/07/30 02:43:42;;;;;;;2.67;2.10;;;18.40;57.00;;;;;;5278138;28;20447;-47
2022/07/30 02:46:16;;;;;;;5.13;2.03;;;18.40;57.20;;;;;;5282460;27;20417;-48
2022/07/30 02:48:49;;;;;;;2.20;1.90;;;18.40;57.30;;;;;;5273570;28;20212;-48
2022/07/30 02:51:21;;;;;;;2.20;1.80;;;18.40;57.40;;;;;;5268271;28;20467;-47
2022/07/30 02:53:54;;;;;;;2.37;2.17;;;18.40;57.40;;;;;;5287755;27;20462;-47
2022/07/30 02:56:26;;;;;;;2.10;1.97;;;18.30;57.50;;;;;;5280700;28;20465;-46
2022/07/30 02:59:00;;;;;;;3.17;2.20;;;18.40;58.30;;;;;;5285571;28;20470;-48
2022/07/30 03:01:32;;;;;;;8.37;2.20;;;18.40;57.70;;;;;;5286648;27;20442;-48
2022/07/30 03:04:04;;;;;;;6.40;1.87;;;18.30;57.90;;;;;;5266831;28;20431;-49
2022/07/30 03:06:36;;;;;;;2.57;2.17;;;18.30;58.00;;;;;;5274618;27;20453;-47
2022/07/30 03:09:08;;;;;;;9.13;2.50;;;18.30;57.90;;;;;;5255833;28;20893;-47
2022/07/30 03:11:39;;;;;;;6.53;2.17;;;18.30;58.00;;;;;;5260176;28;20918;-48
2022/07/30 03:14:10;;;;;;;2.40;2.10;;;18.30;58.10;;;;;;5284851;28;20488;-47
2022/07/30 03:16:47;;;;;;;2.50;1.50;;;18.30;58.20;;;;;;5286914;28;20430;-47
2022/07/30 03:19:19;;;;;;;1.70;1.63;;;18.30;58.30;;;;;;5271964;28;20189;-48
2022/07/30 03:21:52;;;;;;;1.70;1.60;;;18.30;58.40;;;;;;5280516;28;20427;-47
2022/07/30 03:24:24;;;;;;;6.37;1.50;;;18.20;58.50;;;;;;5275724;28;20485;-47
2022/07/30 03:26:56;;;;;;;2.07;1.87;;;18.20;58.60;;;;;;5264629;28;20439;-49
2022/07/30 03:32:55;;;;;;;4.13;1.80;;;18.20;58.80;;;;;;5256933;28;20999;-48
2022/07/30 03:35:26;;;;;;;4.77;1.87;;;18.20;59.00;;;;;;5260913;28;20471;-47
2022/07/30 03:37:58;;;;;;;2.53;1.67;;;18.10;59.10;;;;;;5249648;28;20434;-47
2022/07/30 03:40:30;;;;;;;2.40;1.40;;;18.10;59.10;;;;;;5265887;28;20457;-46
2022/07/30 03:43:01;;;;;;;1.50;1.40;;;18.10;59.40;;;;;;5264422;28;20525;-48
2022/07/30 03:45:32;;;;;;;1.30;1.30;;;18.10;59.50;;;;;;5233760;28;20531;-47
2022/07/30 03:48:06;;;;;;;1.90;1.30;;;18.10;59.50;;;;;;5262445;28;20601;-47
2022/07/30 03:50:39;;;;;;;7.63;1.90;;;18.10;59.60;;;;;;5249850;28;20312;-47
2022/07/30 03:53:10;;;;;;;1.30;1.30;;;18.10;59.60;;;;;;5265804;28;20473;-47
2022/07/30 03:55:42;;;;;;;7.27;2.00;;;18.10;59.70;;;;;;5249244;28;20780;-48
2022/07/30 03:58:13;;;;;;;1.40;1.30;;;18.10;59.80;;;;;;5252690;28;20177;-46
2022/07/30 04:00:48;;;;;;;4.87;1.30;;;18.10;59.90;;;;;;5261918;28;20459;-47
2022/07/30 04:03:30;;;;;;;1.40;1.20;;;18.10;60.00;;;;;;5252065;28;20801;-48
2022/07/30 04:06:01;;;;;;;3.20;1.70;;;18.20;60.00;;;;;;5266277;28;20958;-47
2022/07/30 04:08:32;;;;;;;1.47;1.47;;;18.20;60.00;;;;;;5263587;28;20443;-48
2022/07/30 04:11:04;;;;;;;1.30;1.30;;;18.20;60.00;;;;;;5265925;28;20669;-49
2022/07/30 04:13:34;;;;;;;2.40;1.57;;;18.20;60.00;;;;;;5261636;28;20472;-46
2022/07/30 04:16:10;;;;;;;1.33;1.23;;;18.30;60.00;;;;;;5240555;28;20415;-46
2022/07/30 04:18:49;;;;;;;1.53;1.43;;;18.30;60.00;;;;;;5239645;28;20178;-47
2022/07/30 04:21:22;;;;;;;5.73;1.90;;;18.50;60.30;;;;;;5267531;28;20427;-47
2022/07/30 04:23:54;;;;;;;6.23;2.03;;;18.50;59.90;;;;;;5258296;28;20511;-47
2022/07/30 04:26:25;;;;;;;1.53;1.30;;;18.50;60.00;;;;;;5234448;28;20573;-47
2022/07/30 04:28:57;;;;;;;2.43;2.23;;;18.40;59.90;;;;;;5265668;28;20556;-47
2022/07/30 04:31:28;;;;;;;2.10;1.20;;;18.40;59.90;;;;;;5243505;28;20197;-47
2022/07/30 04:33:59;;;;;;;1.17;1.17;;;18.40;60.00;;;;;;5249226;28;20468;-47
2022/07/30 04:36:31;;;;;;;3.13;1.40;;;18.40;60.00;;;;;;5226897;28;20449;-47
2022/07/30 04:39:02;;;;;;;2.30;1.40;;;18.50;60.00;;;;;;5273086;28;20197;-48
2022/07/30 04:41:33;;;;;;;5.50;1.50;;;18.50;59.80;;;;;;5269488;28;20530;-48
2022/07/30 04:44:04;;;;;;;1.27;1.17;;;18.50;59.90;;;;;;5265388;28;20862;-50
2022/07/30 04:46:34;;;;;;;1.60;1.30;;;18.50;59.90;;;;;;5252185;28;20618;-47
2022/07/30 04:49:05;;;;;;;1.50;1.40;;;18.50;60.00;;;;;;5264377;28;20209;-49
2022/07/30 04:51:37;;;;;;;5.30;1.73;;;18.50;60.00;;;;;;5261823;28;20638;-47
2022/07/30 04:54:10;;;;;;;1.50;1.40;;;18.50;60.00;;;;;;5243646;28;20178;-47
2022/07/30 04:56:41;;;;;;;1.70;1.37;;;18.60;60.10;;;;;;5260844;28;20486;-46
2022/07/30 04:59:12;;;;;;;2.10;1.13;;;18.60;60.30;;;;;;5267353;28;20485;-46
2022/07/30 05:01:46;;;;;;;13.40;1.57;;;18.60;60.20;;;;;;5247289;28;20443;-48
2022/07/30 05:04:18;;;;;;;1.20;1.20;;;18.70;60.20;;;;;;5264148;28;20513;-47
2022/07/30 05:06:49;;;;;;;3.97;1.60;;;18.60;60.10;;;;;;5253305;28;20427;-48
2022/07/30 05:09:21;;;;;;;1.93;1.70;;;18.60;60.40;;;;;;5251634;28;20459;-47
2022/07/30 05:11:55;;;;;;;1.50;1.30;;;18.60;60.60;;;;;;5258758;28;20448;-47
2022/07/30 05:14:26;;;;;;;1.53;1.40;;;18.70;60.70;;;;;;5267575;28;20426;-49
2022/07/30 05:16:57;;;;;;;2.07;1.87;;;18.70;60.70;;;;;;5248760;28;20438;-49
2022/07/30 05:19:27;;;;;;;1.80;1.53;;;18.90;61.30;;;;;;5270872;28;20202;-51
2022/07/30 05:21:58;;;;;;;1.37;1.30;;;18.90;60.40;;;;;;5268933;28;20182;-49
2022/07/30 05:24:29;;;;;;;2.87;1.60;;;19.10;60.20;;;;;;5268567;28;20213;-48
2022/07/30 05:26:59;;;;;;;1.60;1.30;;;19.20;59.90;;;;;;5269574;28;20265;-48
2022/07/30 05:29:30;;;;;;;4.53;1.00;;;19.40;59.70;;;;;;5258173;28;20209;-47
2022/07/30 05:32:01;;;;;;;5.90;1.03;;;19.70;59.00;;;;;;5269614;28;20390;-51
2022/07/30 05:34:31;;;;;;;7.43;2.00;;;19.80;58.80;;;;;;5270951;28;20678;-46
2022/07/30 05:37:02;;;;;;;1.30;1.30;;;19.90;58.60;;;;;;5262079;28;20174;-47
2022/07/30 05:39:33;;;;;;;1.30;1.30;;;20.00;58.30;;;;;;5255196;28;20208;-47
2022/07/30 05:42:03;;;;;;;1.90;0.90;;;20.00;58.30;;;;;;5250286;28;20236;-46
2022/07/30 05:44:34;;;;;;;6.43;1.23;;;20.10;58.10;;;;;;5254849;28;20185;-47
2022/07/30 05:47:05;;;;;;;1.10;1.10;;;20.30;58.00;;;;;;5248959;28;20212;-52
2022/07/30 05:49:36;;;;;;;1.17;1.17;;;20.40;57.70;;;;;;5257122;28;20316;-49
2022/07/30 05:52:06;;;;;;;1.20;1.20;;;20.60;57.60;;;;;;5243280;28;20255;-48
2022/07/30 05:54:37;;;;;;;3.90;1.30;;;20.70;57.40;;;;;;5244732;28;20650;-49
2022/07/30 05:57:07;;;;;;;2.43;1.80;;;21.00;57.40;;;;;;5259848;28;20170;-50
2022/07/30 05:59:38;;;;;;;2.00;1.53;;;21.20;56.90;;;;;;5267434;28;20209;-49
2022/07/30 06:02:09;;;;;;;3.60;1.70;;;21.40;56.50;;;;;;5254153;28;20304;-49
2022/07/30 06:04:39;;;;;;;1.27;1.20;;;21.50;55.90;;;;;;5251307;28;20659;-49
2022/07/30 06:07:10;;;;;;;1.20;1.10;;;21.70;55.90;;;;;;5262654;28;20248;-49
2022/07/30 06:09:40;;;;;;;2.60;1.37;;;21.80;54.50;;;;;;5262106;28;20229;-49
2022/07/30 06:12:11;;;;;;;1.60;1.50;;;21.70;54.70;;;;;;5249345;28;20202;-49
2022/07/30 06:14:42;;;;;;;1.33;1.03;;;21.80;54.60;;;;;;5261659;28;20202;-50
2022/07/30 06:17:12;;;;;;;1.40;1.30;;;22.00;54.20;;;;;;5264220;28;20181;-48
2022/07/30 06:19:43;;;;;;;1.40;1.30;;;22.10;53.60;;;;;;5242351;28;20979;-48
2022/07/30 06:22:14;;;;;;;1.10;1.10;;;22.10;54.10;;;;;;5259821;28;20192;-49
2022/07/30 06:24:44;;;;;;;3.03;1.80;;;22.30;53.70;;;;;;5267726;28;20284;-49
2022/07/30 06:27:15;;;;;;;1.50;1.50;;;22.50;53.40;;;;;;5263713;28;20241;-50
2022/07/30 06:29:45;;;;;;;1.40;1.17;;;22.70;53.10;;;;;;5275391;28;20220;-50
2022/07/30 06:32:18;;;;;;;1.40;1.30;;;23.20;52.60;;;;;;5267967;28;20301;-49
2022/07/30 06:34:48;;;;;;;2.20;1.60;;;23.70;52.00;;;;;;5266677;28;20207;-49
2022/07/30 06:37:19;;;;;;;1.60;1.50;;;24.10;50.60;;;;;;5265963;28;20522;-50
2022/07/30 06:39:49;;;;;;;6.80;2.17;;;24.10;50.60;;;;;;5248967;28;20769;-50
2022/07/30 06:42:20;;;;;;;12.87;1.80;;;24.50;49.80;;;;;;5250804;28;20614;-49
2022/07/30 06:44:51;;;;;;;1.63;1.53;;;24.50;49.80;;;;;;5264469;28;20192;-49
2022/07/30 06:47:28;;;;;;;7.43;1.27;;;24.90;49.00;;;;;;5249803;28;20193;-47
2022/07/30 06:50:01;;;;;;;2.20;1.50;;;24.80;48.90;;;;;;5252731;28;20205;-48
2022/07/30 06:52:32;;;;;;;1.43;1.40;;;25.00;49.20;;;;;;5265285;28;20493;-47
2022/07/30 06:55:03;;;;;;;2.30;1.53;;;25.30;48.20;;;;;;5247964;28;20428;-46
2022/07/30 06:57:34;;;;;;;3.60;1.20;;;25.60;47.50;;;;;;5257306;28;20734;-47
2022/07/30 07:00:06;;;;;;;1.47;1.23;;;25.40;47.80;;;;;;5255068;28;20206;-47
2022/07/30 07:02:38;;;;;;;2.00;1.30;;;25.60;47.70;;;;;;5265820;28;20680;-47
2022/07/30 07:05:09;;;;;;;7.40;1.70;;;25.90;46.80;;;;;;5253300;28;20434;-46
2022/07/30 07:07:39;;;;;;;1.80;1.33;;;26.20;46.50;;;;;;5266268;28;20436;-46
2022/07/30 07:10:10;;;;;;;1.50;1.40;;;26.30;45.90;;;;;;5246409;28;20462;-52
2022/07/30 07:12:40;;;;;;;9.53;1.47;;;26.30;46.90;;;;;;5255046;28;20549;-47
2022/07/30 07:15:11;;;;;;;3.20;1.73;;;26.50;45.80;;;;;;5265394;28;20170;-47
2022/07/30 07:17:42;;;;;;;1.10;1.10;;;26.60;45.50;;;;;;5267674;28;20605;-46
2022/07/30 07:20:13;;;;;;;2.23;1.10;;;26.30;45.60;;;;;;5253447;28;20325;-47
2022/07/30 07:22:43;;;;;;;2.47;1.17;;;26.50;45.70;;;;;;5232878;28;20226;-47
2022/07/30 07:25:14;;;;;;;1.97;1.77;;;26.70;45.50;;;;;;5264536;28;20261;-46
2022/07/30 07:27:45;;;;;;;3.00;1.37;;;26.80;44.90;;;;;;5250201;28;20717;-46
2022/07/30 07:30:16;;;;;;;1.57;1.47;;;27.20;44.40;;;;;;5264101;28;20467;-46
2022/07/30 07:32:46;;;;;;;4.70;1.37;;;27.10;44.30;;;;;;5258796;28;20289;-47
2022/07/30 07:35:17;;;;;;;1.63;1.43;;;27.20;43.80;;;;;;5258625;28;20185;-48
2022/07/30 07:37:47;;;;;;;1.30;1.30;;;26.60;44.60;;;;;;5261033;28;20247;-46
2022/07/30 07:40:18;;;;;;;1.20;1.20;;;26.40;45.60;;;;;;5247595;28;20748;-46
2022/07/30 07:42:49;;;;;;;4.03;1.37;;;26.60;45.10;;;;;;5243082;28;20653;-48
2022/07/30 07:45:19;;;;;;;3.03;1.50;;;26.90;44.70;;;;;;5263860;28;20209;-47
2022/07/30 07:47:50;;;;;;;3.30;1.67;;;26.70;44.40;;;;;;5266209;28;20181;-48
2022/07/30 07:50:20;;;;;;;7.23;1.93;;;26.10;45.50;;;;;;5248357;28;20669;-46
2022/07/30 07:52:51;;;;;;;2.40;1.10;;;25.70;45.80;;;;;;5264758;28;20304;-47
2022/07/30 07:55:22;;;;;;;2.60;1.57;;;25.40;47.40;;;;;;5249125;28;20181;-48
2022/07/30 07:57:52;;;;;;;1.40;1.37;;;25.00;47.50;;;;;;5263394;28;20188;-47
2022/07/30 08:00:23;;;;;;;1.37;1.27;;;25.10;47.70;;;;;;5260694;28;20614;-47
2022/07/30 08:02:54;;;;;;;1.17;1.13;;;25.20;47.50;;;;;;5249817;28;20185;-46
2022/07/30 08:05:25;;;;;;;1.43;1.43;;;25.40;47.70;;;;;;5245177;28;20607;-46
2022/07/30 08:07:55;;;;;;;2.20;1.43;;;25.50;47.40;;;;;;5265210;28;20553;-47
2022/07/30 08:10:26;;;;;;;1.63;1.63;;;25.60;47.10;;;;;;5247954;28;20205;-48
2022/07/30 08:12:56;;;;;;;5.17;1.50;;;25.80;47.00;;;;;;5249061;28;20682;-47
2022/07/30 08:15:27;;;;;;;1.50;1.40;;;26.10;46.60;;;;;;5257530;28;20209;-47
2022/07/30 08:17:58;;;;;;;1.50;1.50;;;26.30;46.30;;;;;;5247462;28;20552;-47
2022/07/30 08:20:28;;;;;;;7.80;1.10;;;26.40;46.10;;;;;;5248355;28;20193;-46
2022/07/30 08:22:59;;;;;;;1.20;1.17;;;26.60;45.50;;;;;;5245830;28;20178;-47
2022/07/30 08:25:29;;;;;;;3.00;1.40;;;26.50;45.90;;;;;;5247933;28;20184;-51
2022/07/30 08:28:02;;;;;;;1.80;1.17;;;26.30;46.00;;;;;;5261542;28;20658;-47
2022/07/30 08:30:32;;;;;;;4.30;1.70;;;26.30;45.50;;;;;;5253176;28;20210;-47
2022/07/30 08:33:03;;;;;;;1.47;1.37;;;26.50;45.70;;;;;;5267390;28;20493;-46
2022/07/30 08:35:33;;;;;;;1.03;1.03;;;26.40;45.60;;;;;;5246080;28;20174;-46
2022/07/30 08:38:04;;;;;;;1.60;1.50;;;26.10;45.60;;;;;;5262961;28;20230;-47
2022/07/30 08:40:35;;;;;;;1.27;1.27;;;26.20;45.80;;;;;;5265633;28;20197;-46
2022/07/30 08:43:07;;;;;;;1.40;1.30;;;26.10;46.00;;;;;;5249109;28;20208;-49
2022/07/30 08:45:38;;;;;;;3.07;1.33;;;26.20;46.30;;;;;;5246767;28;20463;-47
2022/07/30 08:48:12;;;;;;;5.13;1.80;;;26.30;46.30;;;;;;5249068;28;20428;-47
2022/07/30 08:50:44;;;;;;;9.93;1.63;;;26.50;46.00;;;;;;5250040;28;20765;-46
2022/07/30 08:53:16;;;;;;;1.13;1.13;;;26.40;45.50;;;;;;5260930;28;20470;-47
2022/07/30 08:55:46;;;;;;;1.73;1.67;;;26.30;46.30;;;;;;5252160;28;20420;-47
2022/07/30 08:58:29;;;;;;;3.53;1.20;;;26.30;46.50;;;;;;5243969;28;20435;-46
2022/07/30 09:01:01;;;;;;;1.97;1.60;;;26.30;46.40;;;;;;5260985;28;20202;-46
2022/07/30 09:03:32;;;;;;;2.00;1.73;;;26.50;46.40;;;;;;5263123;28;20447;-47
2022/07/30 09:06:04;;;;;;;3.57;1.53;;;26.50;46.50;;;;;;5242485;28;21171;-47
2022/07/30 09:08:35;;;;;;;1.37;1.27;;;26.40;46.20;;;;;;5251823;28;20443;-46
2022/07/30 09:11:06;;;;;;;2.30;1.13;;;26.50;46.40;;;;;;5240337;28;20430;-47
2022/07/30 09:13:40;;;;;;;1.40;1.10;;;26.20;46.30;;;;;;5249039;28;20206;-47
2022/07/30 09:16:20;;;;;;;1.70;1.53;;;26.10;46.80;;;;;;5248617;28;20177;-47
2022/07/30 09:18:53;;;;;;;2.77;1.43;;;26.40;46.30;;;;;;5244331;28;20447;-46
2022/07/30 09:21:30;;;;;;;1.37;1.20;;;26.60;47.20;;;;;;5248724;28;20532;-47
2022/07/30 09:24:08;;;;;;;6.10;1.37;;;26.80;45.80;;;;;;5264698;28;20432;-45
2022/07/30 09:27:00;;;;;;;1.57;1.47;;;26.70;45.90;;;;;;5250856;28;20439;-47
2022/07/30 09:29:31;;;;;;;2.53;1.50;;;26.40;46.00;;;;;;5260692;22;20497;-50
2022/07/30 09:32:04;;;;;;;1.40;1.30;;;26.40;46.40;;;;;;5260107;28;20558;-50
2022/07/30 09:34:37;;;;;;;3.27;1.30;;;26.40;46.30;;;;;;5257015;28;20437;-50
2022/07/30 09:37:13;;;;;;;1.50;1.50;;;26.50;46.50;;;;;;5261877;28;20423;-50
2022/07/30 09:39:44;;;;;;;0.80;0.80;;;26.60;46.20;;;;;;5262489;28;20805;-48
2022/07/30 09:42:20;;;;;;;1.27;1.27;;;26.80;45.90;;;;;;5252929;28;20434;-49
2022/07/30 09:45:03;;;;;;;1.57;1.30;;;26.70;45.70;;;;;;5259974;28;20431;-50
2022/07/30 09:47:36;;;;;;;1.27;1.27;;;26.70;46.10;;;;;;5261624;28;20515;-49
2022/07/30 09:50:12;;;;;;;1.87;1.77;;;26.30;46.10;;;;;;5271849;28;20526;-48
2022/07/30 09:52:45;;;;;;;6.57;1.70;;;26.00;46.90;;;;;;5246148;28;20458;-50
2022/07/30 09:55:30;;;;;;;2.10;1.03;;;26.10;46.80;;;;;;5263188;28;20439;-49
2022/07/30 09:58:05;;;;;;;1.17;1.00;;;26.10;46.60;;;;;;5262963;28;20442;-50
2022/07/30 10:00:37;;;;;;;10.80;1.30;;;25.70;47.40;;;;;;5262529;28;20440;-50
2022/07/30 10:03:18;;;;;;;2.53;1.40;;;25.50;47.70;;;;;;5244198;28;20428;-49
2022/07/30 10:05:59;;;;;;;2.43;1.57;;;25.40;48.50;;;;;;5246235;28;20434;-49
2022/07/30 10:08:49;;;;;;;1.80;1.23;;;25.20;48.40;;;;;;5270838;28;20494;-49
2022/07/30 10:11:21;;;;;;;1.53;1.10;;;25.20;49.00;;;;;;5250860;28;20467;-49
2022/07/30 10:13:57;;;;;;;1.40;1.40;;;25.40;48.90;;;;;;5251343;28;20560;-49
2022/07/30 10:16:29;;;;;;;2.70;1.20;;;25.80;48.60;;;;;;5270747;28;20454;-49
2022/07/30 10:19:00;;;;;;;1.67;1.37;;;26.20;48.20;;;;;;5248438;28;20485;-48
2022/07/30 10:21:31;;;;;;;25.40;1.70;;;26.30;48.10;;;;;;5249532;28;20825;-48
2022/07/30 10:24:03;;;;;;;4.53;2.63;;;26.60;47.00;;;;;;5263256;28;20548;-50
2022/07/30 10:26:36;;;;;;;2.40;2.20;;;26.80;47.10;;;;;;5268375;28;20439;-49
2022/07/30 10:29:07;;;;;;;1.30;1.30;;;27.10;45.70;;;;;;5231384;28;20415;-50
2022/07/30 10:31:38;;;;;;;1.40;1.30;;;26.70;45.40;;;;;;5255833;28;20440;-49
2022/07/30 10:34:10;;;;;;;3.07;1.50;;;26.60;46.10;;;;;;5262946;28;20472;-49
2022/07/30 10:36:44;;;;;;;1.30;1.30;;;26.60;46.50;;;;;;5253263;28;20689;-49
2022/07/30 10:39:20;;;;;;;1.93;1.53;;;26.70;46.40;;;;;;5244757;28;20427;-50
2022/07/30 10:42:00;;;;;;;3.80;1.70;;;26.80;46.40;;;;;;5270090;28;20922;-50
2022/07/30 10:44:55;;;;;;;3.30;1.20;;;26.70;46.40;;;;;;5255691;28;20419;-50
2022/07/30 10:47:26;;;;;;;7.80;1.10;;;26.50;45.40;;;;;;5269443;28;20432;-48
2022/07/30 10:50:05;;;;;;;4.83;1.43;;;26.40;45.80;;;;;;5268745;28;21937;-51
2022/07/30 10:52:44;;;;;;;2.63;0.93;;;26.80;45.50;;;;;;5267465;28;20364;-50
2022/07/30 10:55:20;;;;;;;1.00;1.00;;;26.70;45.00;;;;;;5257922;28;20945;-50
2022/07/30 10:58:11;;;;;;;2.23;1.40;;;26.50;45.40;;;;;;5244780;28;20516;-48
2022/07/30 11:00:42;;;;;;;1.50;1.50;;;26.30;45.50;;;;;;5249902;28;20464;-49
2022/07/30 11:03:25;;;;;;;1.33;1.23;;;26.10;45.40;;;;;;5267440;28;20446;-50
2022/07/30 11:06:14;;;;;;;1.03;1.03;;;26.20;45.70;;;;;;5250342;28;20181;-50
2022/07/30 11:08:46;;;;;;;3.00;1.03;;;26.20;44.80;;;;;;5249919;28;20450;-49
2022/07/30 11:11:19;;;;;;;1.60;1.13;;;26.00;44.80;;;;;;5254721;28;20546;-50
2022/07/30 11:14:00;;;;;;;1.73;1.20;;;25.90;45.20;;;;;;5266725;28;20494;-51
2022/07/30 11:16:33;;;;;;;1.53;1.43;;;26.00;44.70;;;;;;5248768;28;20592;-48
2022/07/30 11:19:05;;;;;;;1.67;1.57;;;26.20;44.40;;;;;;5249560;28;20466;-50
2022/07/30 11:21:36;;;;;;;1.43;1.33;;;26.30;44.10;;;;;;5245063;28;20428;-52
2022/07/30 11:24:45;;;;;;;2.00;1.07;;;26.30;44.20;;;;;;5248988;28;21024;-49
2022/07/30 11:27:40;;;;;;;1.00;1.00;;;26.20;44.10;;;;;;5262044;28;20227;-51
2022/07/30 11:30:20;;;;;;;1.60;1.50;;;26.20;44.30;;;;;;5245419;28;20506;-49
2022/07/30 11:32:53;;;;;;;1.83;1.23;;;26.40;44.40;;;;;;5251348;28;20974;-50
2022/07/30 11:35:26;;;;;;;3.97;1.03;;;26.70;44.20;;;;;;5266577;28;20884;-50
2022/07/30 11:38:08;;;;;;;2.43;1.60;;;27.20;43.30;;;;;;5267616;28;20883;-50
2022/07/30 11:41:01;;;;;;;2.83;1.00;;;26.90;42.20;;;;;;5258196;28;20547;-51
2022/07/30 11:43:34;;;;;;;2.10;1.03;;;26.20;43.40;;;;;;5264734;28;20435;-50
2022/07/30 11:46:09;;;;;;;1.10;1.10;;;26.00;43.60;;;;;;5262344;28;20436;-50
2022/07/30 11:48:43;;;;;;;1.40;1.30;;;26.10;43.30;;;;;;5249691;28;20438;-49
2022/07/30 11:51:13;;;;;;;2.37;1.30;;;26.20;42.90;;;;;;5263556;28;20452;-48
2022/07/30 11:53:44;;;;;;;1.23;1.23;;;26.10;43.20;;;;;;5255351;28;20467;-50
2022/07/30 11:56:15;;;;;;;2.17;0.93;;;26.20;43.30;;;;;;5264429;28;20542;-50
2022/07/30 11:58:46;;;;;;;7.80;1.07;;;26.40;43.00;;;;;;5249362;28;20181;-49
2022/07/30 12:01:16;;;;;;;8.77;1.20;;;26.60;43.00;;;;;;5259792;28;20270;-49
2022/07/30 12:03:47;;;;;;;3.30;1.20;;;26.80;43.10;;;;;;5266602;28;20197;-50
2022/07/30 12:06:19;;;;;;;0.70;0.70;;;26.80;42.60;;;;;;5241181;28;20222;-50
2022/07/30 12:08:51;;;;;;;0.83;0.83;;;26.70;42.70;;;;;;5260025;28;20680;-50
2022/07/30 12:11:22;;;;;;;1.23;1.23;;;26.40;43.00;;;;;;5260877;28;20448;-50
2022/07/30 12:13:58;;;;;;;3.53;1.10;;;26.50;42.70;;;;;;5258705;28;21024;-50
2022/07/30 12:16:32;;;;;;;2.93;1.23;;;26.60;42.50;;;;;;5260835;28;20242;-50
2022/07/30 12:19:04;;;;;;;3.23;0.87;;;27.00;41.80;;;;;;5248700;28;20439;-49
2022/07/30 12:21:34;;;;;;;0.80;0.80;;;27.30;41.00;;;;;;5231751;28;20434;-50
2022/07/30 12:24:12;;;;;;;14.53;1.10;;;26.90;40.40;;;;;;5246740;28;20436;-49
2022/07/30 12:26:43;;;;;;;1.20;1.20;;;26.50;40.50;;;;;;5248970;28;20196;-50
2022/07/30 12:29:13;;;;;;;1.00;1.00;;;26.10;41.80;;;;;;5267519;28;20806;-50
2022/07/30 12:31:44;;;;;;;4.67;1.03;;;26.20;41.50;;;;;;5251945;28;20181;-50
2022/07/30 12:34:24;;;;;;;1.00;1.00;;;26.20;42.30;;;;;;5267011;28;20229;-50
2022/07/30 12:37:05;;;;;;;3.43;1.40;;;26.50;42.40;;;;;;5260293;28;20432;-49
2022/07/30 12:39:36;;;;;;;1.40;1.00;;;26.70;41.40;;;;;;5247971;28;20467;-50
2022/07/30 12:42:16;;;;;;;1.40;1.40;;;26.70;40.40;;;;;;5260731;28;20809;-49
2022/07/30 12:44:50;;;;;;;1.33;1.30;;;26.80;40.70;;;;;;5256534;28;20193;-49
2022/07/30 12:47:25;;;;;;;2.47;1.03;;;26.70;41.60;;;;;;5245444;28;20505;-50
2022/07/30 12:49:58;;;;;;;2.80;1.00;;;26.90;41.70;;;;;;5265255;28;20494;-49
2022/07/30 12:52:31;;;;;;;0.70;0.70;;;26.80;41.70;;;;;;5236611;28;20479;-50
2022/07/30 12:55:10;;;;;;;1.30;1.30;;;26.60;42.30;;;;;;5259895;28;20435;-50
2022/07/30 12:57:55;;;;;;;2.60;1.30;;;26.60;42.90;;;;;;5249574;28;20472;-50
2022/07/30 13:00:29;;;;;;;1.30;1.30;;;26.70;42.70;;;;;;5245154;28;20448;-50
2022/07/30 13:03:00;;;;;;;1.87;1.77;;;27.00;42.40;;;;;;5260871;28;20455;-50
2022/07/30 13:05:48;;;;;;;4.50;1.50;;;27.30;41.40;;;;;;5253198;28;20745;-48
2022/07/30 13:08:19;;;;;;;1.30;1.30;;;26.90;40.00;;;;;;5250726;28;20367;-49
2022/07/30 13:11:00;;;;;;;3.40;1.20;;;27.10;40.10;;;;;;5266776;28;20447;-48
2022/07/30 13:13:33;;;;;;;1.63;1.53;;;27.20;39.70;;;;;;5268249;28;20937;-50
2022/07/30 13:16:05;;;;;;;1.00;1.00;;;27.30;40.10;;;;;;5251004;28;20436;-49
2022/07/30 13:18:36;;;;;;;0.80;0.80;;;27.30;41.10;;;;;;5246606;28;20430;-48
2022/07/30 13:21:08;;;;;;;2.57;1.30;;;27.40;41.30;;;;;;5253596;28;20447;-49